sensor_id;sensor_type;location;lat;lon;timestamp;P1;durP1;ratioP1;P2;durP2;ratioP2
15536;SDS011;7870;52.448;13.270;2023-07-20T00:00:25;15.65;;;11.05;;
15536;SDS011;7870;52.448;13.270;2023-07-20T00:02:52;15.13;;;10.43;;
15536;SDS011;7870;52.448;13.270;2023-07-20T00:05:18;16.30;;;11.57;;
15536;SDS011;7870;52.448;13.270;2023-07-20T00:07:47;15.88;;;11.13;;
15536;SDS011;7870;52.448;13.270;2023-07-20T00:10:18;14.95;;;10.18;;
15536;SDS011;7870;52.448;13.270;2023-07-20T00:12:44;12.27;;;10.57;;
15536;SDS011;7870;52.448;13.270;2023-07-20T00:15:13;11.73;;;10.43;;
15536;SDS011;7870;52.448;13.270;2023-07-20T00:17:40;13.20;;;11.85;;
15536;SDS011;7870;52.448;13.270;2023-07-20T00:20:06;13.57;;;12.18;;
15536;SDS011;7870;52.448;13.270;2023-07-20T00:22:33;13.75;;;12.15;;
15536;SDS011;7870;52.448;13.270;2023-07-20T00:24:59;13.18;;;11.77;;
15536;SDS011;7870;52.448;13.270;2023-07-20T00:27:26;14.35;;;12.23;;
15536;SDS011;7870;52.448;13.270;2023-07-20T00:29:52;14.40;;;12.10;;
15536;SDS011;7870;52.448;13.270;2023-07-20T00:32:18;16.20;;;12.30;;
15536;SDS011;7870;52.448;13.270;2023-07-20T00:34:45;17.25;;;12.50;;
15536;SDS011;7870;52.448;13.270;2023-07-20T00:37:12;14.60;;;12.60;;
15536;SDS011;7870;52.448;13.270;2023-07-20T00:39:39;16.70;;;12.82;;
15536;SDS011;7870;52.448;13.270;2023-07-20T00:42:05;16.52;;;13.55;;
15536;SDS011;7870;52.448;13.270;2023-07-20T00:44:31;15.82;;;12.98;;
15536;SDS011;7870;52.448;13.270;2023-07-20T00:46:58;16.55;;;13.70;;
15536;SDS011;7870;52.448;13.270;2023-07-20T00:49:25;14.00;;;12.43;;
15536;SDS011;7870;52.448;13.270;2023-07-20T00:51:51;14.82;;;13.23;;
15536;SDS011;7870;52.448;13.270;2023-07-20T00:54:18;15.68;;;13.63;;
15536;SDS011;7870;52.448;13.270;2023-07-20T00:56:44;15.95;;;13.82;;
15536;SDS011;7870;52.448;13.270;2023-07-20T00:59:12;18.65;;;14.30;;
15536;SDS011;7870;52.448;13.270;2023-07-20T01:01:38;15.02;;;13.48;;
15536;SDS011;7870;52.448;13.270;2023-07-20T01:04:05;17.00;;;14.77;;
15536;SDS011;7870;52.448;13.270;2023-07-20T01:06:36;17.55;;;14.85;;
15536;SDS011;7870;52.448;13.270;2023-07-20T01:11:49;17.33;;;13.82;;
15536;SDS011;7870;52.448;13.270;2023-07-20T01:14:20;14.73;;;13.20;;
15536;SDS011;7870;52.448;13.270;2023-07-20T01:16:46;16.02;;;14.35;;
15536;SDS011;7870;52.448;13.270;2023-07-20T01:19:15;18.17;;;14.02;;
15536;SDS011;7870;52.448;13.270;2023-07-20T01:21:48;15.00;;;13.35;;
15536;SDS011;7870;52.448;13.270;2023-07-20T01:24:19;15.95;;;13.48;;
15536;SDS011;7870;52.448;13.270;2023-07-20T01:26:54;15.75;;;13.73;;
15536;SDS011;7870;52.448;13.270;2023-07-20T01:29:33;15.23;;;12.38;;
15536;SDS011;7870;52.448;13.270;2023-07-20T01:32:02;16.10;;;13.25;;
15536;SDS011;7870;52.448;13.270;2023-07-20T01:34:30;17.17;;;14.00;;
15536;SDS011;7870;52.448;13.270;2023-07-20T01:36:58;16.27;;;14.07;;
15536;SDS011;7870;52.448;13.270;2023-07-20T01:39:26;18.95;;;13.15;;
15536;SDS011;7870;52.448;13.270;2023-07-20T01:41:52;16.63;;;13.25;;
15536;SDS011;7870;52.448;13.270;2023-07-20T01:44:19;16.70;;;13.38;;
15536;SDS011;7870;52.448;13.270;2023-07-20T01:46:45;14.88;;;13.07;;
15536;SDS011;7870;52.448;13.270;2023-07-20T01:49:12;15.45;;;13.32;;
15536;SDS011;7870;52.448;13.270;2023-07-20T01:51:38;17.17;;;13.35;;
15536;SDS011;7870;52.448;13.270;2023-07-20T01:54:05;15.98;;;13.73;;
15536;SDS011;7870;52.448;13.270;2023-07-20T01:56:31;18.23;;;14.07;;
15536;SDS011;7870;52.448;13.270;2023-07-20T01:58:57;17.10;;;13.65;;
15536;SDS011;7870;52.448;13.270;2023-07-20T02:01:24;16.52;;;14.23;;
15536;SDS011;7870;52.448;13.270;2023-07-20T02:03:50;14.68;;;13.18;;
15536;SDS011;7870;52.448;13.270;2023-07-20T02:06:17;17.50;;;14.55;;
15536;SDS011;7870;52.448;13.270;2023-07-20T02:08:43;16.58;;;14.48;;
15536;SDS011;7870;52.448;13.270;2023-07-20T02:11:10;16.48;;;14.73;;
15536;SDS011;7870;52.448;13.270;2023-07-20T02:13:36;17.42;;;14.55;;
15536;SDS011;7870;52.448;13.270;2023-07-20T02:16:02;17.15;;;15.35;;
15536;SDS011;7870;52.448;13.270;2023-07-20T02:18:29;16.85;;;14.88;;
15536;SDS011;7870;52.448;13.270;2023-07-20T02:20:55;21.60;;;16.58;;
15536;SDS011;7870;52.448;13.270;2023-07-20T02:23:22;19.08;;;17.17;;
15536;SDS011;7870;52.448;13.270;2023-07-20T02:25:48;20.23;;;17.15;;
15536;SDS011;7870;52.448;13.270;2023-07-20T02:28:15;19.98;;;17.92;;
15536;SDS011;7870;52.448;13.270;2023-07-20T02:30:41;20.30;;;17.88;;
15536;SDS011;7870;52.448;13.270;2023-07-20T02:33:07;18.92;;;16.92;;
15536;SDS011;7870;52.448;13.270;2023-07-20T02:35:34;19.25;;;17.25;;
15536;SDS011;7870;52.448;13.270;2023-07-20T02:38:01;22.80;;;17.77;;
15536;SDS011;7870;52.448;13.270;2023-07-20T02:40:27;20.48;;;17.55;;
15536;SDS011;7870;52.448;13.270;2023-07-20T02:42:54;23.40;;;18.10;;
15536;SDS011;7870;52.448;13.270;2023-07-20T02:45:20;20.25;;;16.58;;
15536;SDS011;7870;52.448;13.270;2023-07-20T02:47:47;19.58;;;16.63;;
15536;SDS011;7870;52.448;13.270;2023-07-20T02:50:13;19.15;;;17.15;;
15536;SDS011;7870;52.448;13.270;2023-07-20T02:52:40;20.65;;;17.98;;
15536;SDS011;7870;52.448;13.270;2023-07-20T02:55:07;22.90;;;17.23;;
15536;SDS011;7870;52.448;13.270;2023-07-20T02:57:33;20.75;;;18.45;;
15536;SDS011;7870;52.448;13.270;2023-07-20T03:00:00;22.05;;;18.10;;
15536;SDS011;7870;52.448;13.270;2023-07-20T03:02:26;23.77;;;18.90;;
15536;SDS011;7870;52.448;13.270;2023-07-20T03:04:54;22.33;;;19.42;;
15536;SDS011;7870;52.448;13.270;2023-07-20T03:07:21;21.60;;;19.00;;
15536;SDS011;7870;52.448;13.270;2023-07-20T03:09:48;20.98;;;18.05;;
15536;SDS011;7870;52.448;13.270;2023-07-20T03:12:14;22.83;;;18.63;;
15536;SDS011;7870;52.448;13.270;2023-07-20T03:14:42;19.25;;;17.17;;
15536;SDS011;7870;52.448;13.270;2023-07-20T03:17:08;22.02;;;18.60;;
15536;SDS011;7870;52.448;13.270;2023-07-20T03:19:35;21.48;;;18.55;;
15536;SDS011;7870;52.448;13.270;2023-07-20T03:22:02;23.35;;;17.98;;
15536;SDS011;7870;52.448;13.270;2023-07-20T03:24:29;21.23;;;18.33;;
15536;SDS011;7870;52.448;13.270;2023-07-20T03:26:55;22.58;;;18.48;;
15536;SDS011;7870;52.448;13.270;2023-07-20T03:29:22;21.48;;;18.70;;
15536;SDS011;7870;52.448;13.270;2023-07-20T03:31:48;20.70;;;17.15;;
15536;SDS011;7870;52.448;13.270;2023-07-20T03:34:16;21.92;;;19.48;;
15536;SDS011;7870;52.448;13.270;2023-07-20T03:36:43;21.50;;;17.00;;
15536;SDS011;7870;52.448;13.270;2023-07-20T03:39:11;23.92;;;17.75;;
15536;SDS011;7870;52.448;13.270;2023-07-20T03:41:37;25.88;;;18.77;;
15536;SDS011;7870;52.448;13.270;2023-07-20T03:44:04;22.58;;;17.77;;
15536;SDS011;7870;52.448;13.270;2023-07-20T03:46:30;24.77;;;19.08;;
15536;SDS011;7870;52.448;13.270;2023-07-20T03:48:57;24.55;;;18.58;;
15536;SDS011;7870;52.448;13.270;2023-07-20T03:51:23;25.77;;;18.73;;
15536;SDS011;7870;52.448;13.270;2023-07-20T03:53:50;21.42;;;19.10;;
15536;SDS011;7870;52.448;13.270;2023-07-20T03:56:16;26.95;;;18.83;;
15536;SDS011;7870;52.448;13.270;2023-07-20T03:58:42;25.13;;;19.63;;
15536;SDS011;7870;52.448;13.270;2023-07-20T04:01:09;22.02;;;18.63;;
15536;SDS011;7870;52.448;13.270;2023-07-20T04:03:36;24.38;;;18.90;;
15536;SDS011;7870;52.448;13.270;2023-07-20T04:06:02;23.42;;;19.25;;
15536;SDS011;7870;52.448;13.270;2023-07-20T04:08:29;22.85;;;19.83;;
15536;SDS011;7870;52.448;13.270;2023-07-20T04:10:55;21.13;;;18.13;;
15536;SDS011;7870;52.448;13.270;2023-07-20T04:13:22;24.67;;;19.33;;
15536;SDS011;7870;52.448;13.270;2023-07-20T04:15:48;24.13;;;19.05;;
15536;SDS011;7870;52.448;13.270;2023-07-20T04:18:14;23.58;;;18.88;;
15536;SDS011;7870;52.448;13.270;2023-07-20T04:20:41;22.73;;;19.02;;
15536;SDS011;7870;52.448;13.270;2023-07-20T04:23:08;25.67;;;18.58;;
15536;SDS011;7870;52.448;13.270;2023-07-20T04:25:34;20.85;;;18.38;;
15536;SDS011;7870;52.448;13.270;2023-07-20T04:28:06;22.15;;;19.40;;
15536;SDS011;7870;52.448;13.270;2023-07-20T04:30:38;21.70;;;18.73;;
15536;SDS011;7870;52.448;13.270;2023-07-20T04:33:05;20.88;;;18.58;;
15536;SDS011;7870;52.448;13.270;2023-07-20T04:35:45;22.23;;;18.25;;
15536;SDS011;7870;52.448;13.270;2023-07-20T04:38:15;24.20;;;18.08;;
15536;SDS011;7870;52.448;13.270;2023-07-20T04:40:45;20.85;;;17.30;;
15536;SDS011;7870;52.448;13.270;2023-07-20T04:43:12;20.27;;;18.08;;
15536;SDS011;7870;52.448;13.270;2023-07-20T04:45:39;23.67;;;18.20;;
15536;SDS011;7870;52.448;13.270;2023-07-20T04:48:09;19.17;;;17.02;;
15536;SDS011;7870;52.448;13.270;2023-07-20T04:50:45;18.88;;;16.98;;
15536;SDS011;7870;52.448;13.270;2023-07-20T04:53:13;21.38;;;18.50;;
15536;SDS011;7870;52.448;13.270;2023-07-20T04:55:40;21.08;;;18.45;;
15536;SDS011;7870;52.448;13.270;2023-07-20T04:58:07;20.27;;;17.17;;
15536;SDS011;7870;52.448;13.270;2023-07-20T05:00:37;18.95;;;16.95;;
15536;SDS011;7870;52.448;13.270;2023-07-20T05:03:04;21.42;;;17.83;;
15536;SDS011;7870;52.448;13.270;2023-07-20T05:05:32;19.80;;;16.95;;
15536;SDS011;7870;52.448;13.270;2023-07-20T05:07:59;21.83;;;16.92;;
15536;SDS011;7870;52.448;13.270;2023-07-20T05:10:25;19.25;;;17.25;;
15536;SDS011;7870;52.448;13.270;2023-07-20T05:12:52;20.08;;;18.08;;
15536;SDS011;7870;52.448;13.270;2023-07-20T05:15:18;19.23;;;17.20;;
15536;SDS011;7870;52.448;13.270;2023-07-20T05:17:44;17.88;;;16.00;;
15536;SDS011;7870;52.448;13.270;2023-07-20T05:20:11;16.63;;;14.95;;
15536;SDS011;7870;52.448;13.270;2023-07-20T05:22:39;16.85;;;15.02;;
15536;SDS011;7870;52.448;13.270;2023-07-20T05:25:09;22.50;;;17.60;;
15536;SDS011;7870;52.448;13.270;2023-07-20T05:27:36;16.35;;;14.82;;
15536;SDS011;7870;52.448;13.270;2023-07-20T05:30:03;16.83;;;15.20;;
15536;SDS011;7870;52.448;13.270;2023-07-20T05:32:30;16.25;;;14.32;;
15536;SDS011;7870;52.448;13.270;2023-07-20T05:34:56;16.13;;;14.57;;
15536;SDS011;7870;52.448;13.270;2023-07-20T05:37:23;16.60;;;14.90;;
15536;SDS011;7870;52.448;13.270;2023-07-20T05:39:49;16.45;;;13.57;;
15536;SDS011;7870;52.448;13.270;2023-07-20T05:42:16;16.95;;;15.13;;
15536;SDS011;7870;52.448;13.270;2023-07-20T05:44:43;17.42;;;15.63;;
15536;SDS011;7870;52.448;13.270;2023-07-20T05:47:09;15.77;;;13.90;;
15536;SDS011;7870;52.448;13.270;2023-07-20T05:49:35;18.52;;;14.65;;
15536;SDS011;7870;52.448;13.270;2023-07-20T05:52:02;17.63;;;15.02;;
15536;SDS011;7870;52.448;13.270;2023-07-20T05:54:28;17.42;;;14.27;;
15536;SDS011;7870;52.448;13.270;2023-07-20T05:56:55;16.25;;;13.57;;
15536;SDS011;7870;52.448;13.270;2023-07-20T05:59:21;16.02;;;14.02;;
15536;SDS011;7870;52.448;13.270;2023-07-20T06:01:49;15.52;;;14.02;;
15536;SDS011;7870;52.448;13.270;2023-07-20T06:04:16;14.57;;;13.05;;
15536;SDS011;7870;52.448;13.270;2023-07-20T06:06:42;13.52;;;12.18;;
15536;SDS011;7870;52.448;13.270;2023-07-20T06:09:09;12.43;;;11.13;;
15536;SDS011;7870;52.448;13.270;2023-07-20T06:11:38;12.18;;;10.98;;
15536;SDS011;7870;52.448;13.270;2023-07-20T06:14:05;12.75;;;10.30;;
15536;SDS011;7870;52.448;13.270;2023-07-20T06:16:31;10.75;;;9.18;;
15536;SDS011;7870;52.448;13.270;2023-07-20T06:18:59;8.30;;;7.43;;
15536;SDS011;7870;52.448;13.270;2023-07-20T06:21:26;9.52;;;7.40;;
15536;SDS011;7870;52.448;13.270;2023-07-20T06:23:52;7.68;;;6.88;;
15536;SDS011;7870;52.448;13.270;2023-07-20T06:26:18;8.07;;;6.05;;
15536;SDS011;7870;52.448;13.270;2023-07-20T06:28:46;6.35;;;5.28;;
15536;SDS011;7870;52.448;13.270;2023-07-20T06:31:12;6.15;;;5.18;;
15536;SDS011;7870;52.448;13.270;2023-07-20T06:33:39;5.60;;;4.60;;
15536;SDS011;7870;52.448;13.270;2023-07-20T06:36:05;6.38;;;4.85;;
15536;SDS011;7870;52.448;13.270;2023-07-20T06:38:32;8.07;;;4.63;;
15536;SDS011;7870;52.448;13.270;2023-07-20T06:40:58;5.88;;;4.05;;
15536;SDS011;7870;52.448;13.270;2023-07-20T06:43:45;5.88;;;4.18;;
15536;SDS011;7870;52.448;13.270;2023-07-20T06:46:14;4.13;;;3.70;;
15536;SDS011;7870;52.448;13.270;2023-07-20T06:48:41;5.13;;;3.65;;
15536;SDS011;7870;52.448;13.270;2023-07-20T06:51:10;5.97;;;3.58;;
15536;SDS011;7870;52.448;13.270;2023-07-20T06:53:36;7.32;;;2.90;;
15536;SDS011;7870;52.448;13.270;2023-07-20T06:56:03;3.70;;;2.78;;
15536;SDS011;7870;52.448;13.270;2023-07-20T06:58:29;5.07;;;2.47;;
15536;SDS011;7870;52.448;13.270;2023-07-20T07:00:56;3.88;;;2.40;;
15536;SDS011;7870;52.448;13.270;2023-07-20T07:03:23;5.25;;;1.95;;
15536;SDS011;7870;52.448;13.270;2023-07-20T07:05:54;3.17;;;2.17;;
15536;SDS011;7870;52.448;13.270;2023-07-20T07:08:21;3.83;;;1.77;;
15536;SDS011;7870;52.448;13.270;2023-07-20T07:10:48;3.95;;;1.92;;
15536;SDS011;7870;52.448;13.270;2023-07-20T07:13:14;2.53;;;1.60;;
15536;SDS011;7870;52.448;13.270;2023-07-20T07:15:40;3.33;;;1.67;;
15536;SDS011;7870;52.448;13.270;2023-07-20T07:18:07;2.15;;;1.38;;
15536;SDS011;7870;52.448;13.270;2023-07-20T07:20:34;3.05;;;1.35;;
15536;SDS011;7870;52.448;13.270;2023-07-20T07:23:00;4.60;;;1.13;;
15536;SDS011;7870;52.448;13.270;2023-07-20T07:25:27;1.60;;;1.10;;
15536;SDS011;7870;52.448;13.270;2023-07-20T07:27:53;1.42;;;0.93;;
15536;SDS011;7870;52.448;13.270;2023-07-20T07:30:20;1.20;;;0.80;;
15536;SDS011;7870;52.448;13.270;2023-07-20T07:32:47;2.63;;;1.25;;
15536;SDS011;7870;52.448;13.270;2023-07-20T07:35:13;2.20;;;1.13;;
15536;SDS011;7870;52.448;13.270;2023-07-20T07:37:40;2.97;;;1.30;;
15536;SDS011;7870;52.448;13.270;2023-07-20T07:40:22;2.45;;;0.90;;
15536;SDS011;7870;52.448;13.270;2023-07-20T07:42:49;2.25;;;0.80;;
15536;SDS011;7870;52.448;13.270;2023-07-20T07:45:15;1.40;;;0.68;;
15536;SDS011;7870;52.448;13.270;2023-07-20T07:47:42;2.83;;;0.73;;
15536;SDS011;7870;52.448;13.270;2023-07-20T07:50:09;1.10;;;0.60;;
15536;SDS011;7870;52.448;13.270;2023-07-20T07:52:36;1.05;;;0.57;;
15536;SDS011;7870;52.448;13.270;2023-07-20T07:55:03;1.30;;;0.60;;
15536;SDS011;7870;52.448;13.270;2023-07-20T07:57:30;2.13;;;0.90;;
15536;SDS011;7870;52.448;13.270;2023-07-20T07:59:56;1.70;;;0.82;;
15536;SDS011;7870;52.448;13.270;2023-07-20T08:02:23;1.75;;;0.90;;
15536;SDS011;7870;52.448;13.270;2023-07-20T08:04:49;0.90;;;0.65;;
15536;SDS011;7870;52.448;13.270;2023-07-20T08:07:18;1.30;;;0.80;;
15536;SDS011;7870;52.448;13.270;2023-07-20T08:09:44;1.25;;;0.80;;
15536;SDS011;7870;52.448;13.270;2023-07-20T08:12:11;2.08;;;0.68;;
15536;SDS011;7870;52.448;13.270;2023-07-20T08:14:39;1.73;;;0.90;;
15536;SDS011;7870;52.448;13.270;2023-07-20T08:17:06;2.72;;;0.60;;
15536;SDS011;7870;52.448;13.270;2023-07-20T08:19:32;0.95;;;0.57;;
15536;SDS011;7870;52.448;13.270;2023-07-20T08:21:59;2.83;;;0.68;;
15536;SDS011;7870;52.448;13.270;2023-07-20T08:24:25;0.93;;;0.50;;
15536;SDS011;7870;52.448;13.270;2023-07-20T08:26:51;1.48;;;0.68;;
15536;SDS011;7870;52.448;13.270;2023-07-20T08:29:18;2.17;;;0.80;;
15536;SDS011;7870;52.448;13.270;2023-07-20T08:31:44;2.15;;;1.02;;
15536;SDS011;7870;52.448;13.270;2023-07-20T08:34:12;3.70;;;0.60;;
15536;SDS011;7870;52.448;13.270;2023-07-20T08:36:54;0.57;;;0.30;;
15536;SDS011;7870;52.448;13.270;2023-07-20T08:39:20;2.65;;;0.73;;
15536;SDS011;7870;52.448;13.270;2023-07-20T08:41:48;0.52;;;0.30;;
15536;SDS011;7870;52.448;13.270;2023-07-20T08:44:15;1.75;;;0.57;;
15536;SDS011;7870;52.448;13.270;2023-07-20T08:46:41;0.85;;;0.32;;
15536;SDS011;7870;52.448;13.270;2023-07-20T08:49:08;0.93;;;0.43;;
15536;SDS011;7870;52.448;13.270;2023-07-20T08:51:37;0.88;;;0.50;;
15536;SDS011;7870;52.448;13.270;2023-07-20T08:54:04;1.08;;;0.43;;
15536;SDS011;7870;52.448;13.270;2023-07-20T08:56:31;1.10;;;0.45;;
15536;SDS011;7870;52.448;13.270;2023-07-20T08:58:57;0.73;;;0.40;;
15536;SDS011;7870;52.448;13.270;2023-07-20T09:01:24;1.05;;;0.50;;
15536;SDS011;7870;52.448;13.270;2023-07-20T09:03:51;1.33;;;0.40;;
15536;SDS011;7870;52.448;13.270;2023-07-20T09:06:17;1.08;;;0.40;;
15536;SDS011;7870;52.448;13.270;2023-07-20T09:08:43;1.55;;;0.77;;
15536;SDS011;7870;52.448;13.270;2023-07-20T09:11:10;1.88;;;0.57;;
15536;SDS011;7870;52.448;13.270;2023-07-20T09:13:37;2.47;;;0.50;;
15536;SDS011;7870;52.448;13.270;2023-07-20T09:16:04;1.88;;;0.57;;
15536;SDS011;7870;52.448;13.270;2023-07-20T09:18:32;1.65;;;0.80;;
15536;SDS011;7870;52.448;13.270;2023-07-20T09:20:58;1.02;;;0.40;;
15536;SDS011;7870;52.448;13.270;2023-07-20T09:23:30;0.90;;;0.50;;
15536;SDS011;7870;52.448;13.270;2023-07-20T09:25:57;2.03;;;0.70;;
15536;SDS011;7870;52.448;13.270;2023-07-20T09:28:24;1.75;;;0.77;;
15536;SDS011;7870;52.448;13.270;2023-07-20T09:30:50;2.28;;;0.90;;
15536;SDS011;7870;52.448;13.270;2023-07-20T09:33:22;1.45;;;0.77;;
15536;SDS011;7870;52.448;13.270;2023-07-20T09:35:52;1.95;;;0.90;;
15536;SDS011;7870;52.448;13.270;2023-07-20T09:38:21;1.23;;;0.75;;
15536;SDS011;7870;52.448;13.270;2023-07-20T09:40:50;1.23;;;0.70;;
15536;SDS011;7870;52.448;13.270;2023-07-20T09:43:19;3.33;;;0.90;;
15536;SDS011;7870;52.448;13.270;2023-07-20T09:45:49;1.80;;;0.95;;
15536;SDS011;7870;52.448;13.270;2023-07-20T09:48:19;1.75;;;0.80;;
15536;SDS011;7870;52.448;13.270;2023-07-20T09:50:53;3.45;;;1.10;;
15536;SDS011;7870;52.448;13.270;2023-07-20T09:53:20;1.30;;;0.68;;
15536;SDS011;7870;52.448;13.270;2023-07-20T09:55:46;1.65;;;0.70;;
15536;SDS011;7870;52.448;13.270;2023-07-20T09:58:14;1.02;;;0.63;;
15536;SDS011;7870;52.448;13.270;2023-07-20T10:00:41;1.98;;;0.70;;
15536;SDS011;7870;52.448;13.270;2023-07-20T10:03:15;1.75;;;0.75;;
15536;SDS011;7870;52.448;13.270;2023-07-20T10:05:46;1.47;;;0.60;;
15536;SDS011;7870;52.448;13.270;2023-07-20T10:08:13;2.15;;;1.08;;
15536;SDS011;7870;52.448;13.270;2023-07-20T10:10:44;0.93;;;0.70;;
15536;SDS011;7870;52.448;13.270;2023-07-20T10:13:26;1.23;;;0.73;;
15536;SDS011;7870;52.448;13.270;2023-07-20T10:15:59;3.53;;;0.80;;
15536;SDS011;7870;52.448;13.270;2023-07-20T10:18:30;3.47;;;0.90;;
15536;SDS011;7870;52.448;13.270;2023-07-20T10:20:59;1.98;;;0.80;;
15536;SDS011;7870;52.448;13.270;2023-07-20T10:23:29;0.80;;;0.50;;
15536;SDS011;7870;52.448;13.270;2023-07-20T10:25:57;0.68;;;0.55;;
15536;SDS011;7870;52.448;13.270;2023-07-20T10:28:23;1.58;;;0.63;;
15536;SDS011;7870;52.448;13.270;2023-07-20T10:30:50;0.98;;;0.70;;
15536;SDS011;7870;52.448;13.270;2023-07-20T10:33:17;1.52;;;0.70;;
15536;SDS011;7870;52.448;13.270;2023-07-20T10:35:50;3.63;;;0.70;;
15536;SDS011;7870;52.448;13.270;2023-07-20T10:38:16;1.80;;;0.70;;
15536;SDS011;7870;52.448;13.270;2023-07-20T10:40:43;1.15;;;0.40;;
15536;SDS011;7870;52.448;13.270;2023-07-20T10:43:21;2.55;;;0.75;;
15536;SDS011;7870;52.448;13.270;2023-07-20T10:45:49;1.20;;;0.70;;
15536;SDS011;7870;52.448;13.270;2023-07-20T10:48:23;2.22;;;0.80;;
15536;SDS011;7870;52.448;13.270;2023-07-20T10:51:09;1.60;;;0.70;;
15536;SDS011;7870;52.448;13.270;2023-07-20T10:53:35;1.63;;;0.70;;
15536;SDS011;7870;52.448;13.270;2023-07-20T10:58:34;1.80;;;0.90;;
15536;SDS011;7870;52.448;13.270;2023-07-20T11:01:01;1.30;;;0.80;;
15536;SDS011;7870;52.448;13.270;2023-07-20T11:03:30;3.65;;;0.80;;
15536;SDS011;7870;52.448;13.270;2023-07-20T11:08:48;2.78;;;1.08;;
15536;SDS011;7870;52.448;13.270;2023-07-20T11:11:23;2.75;;;0.95;;
15536;SDS011;7870;52.448;13.270;2023-07-20T11:13:59;1.38;;;0.75;;
15536;SDS011;7870;52.448;13.270;2023-07-20T11:19:18;1.48;;;0.70;;
15536;SDS011;7870;52.448;13.270;2023-07-20T11:21:50;1.13;;;0.60;;
15536;SDS011;7870;52.448;13.270;2023-07-20T11:26:55;2.53;;;0.70;;
15536;SDS011;7870;52.448;13.270;2023-07-20T11:29:22;1.05;;;0.60;;
15536;SDS011;7870;52.448;13.270;2023-07-20T11:31:58;1.65;;;0.63;;
15536;SDS011;7870;52.448;13.270;2023-07-20T11:34:25;1.92;;;0.60;;
15536;SDS011;7870;52.448;13.270;2023-07-20T11:36:53;2.50;;;0.77;;
15536;SDS011;7870;52.448;13.270;2023-07-20T11:39:23;0.70;;;0.53;;
15536;SDS011;7870;52.448;13.270;2023-07-20T11:41:54;2.75;;;1.50;;
15536;SDS011;7870;52.448;13.270;2023-07-20T11:44:21;2.30;;;0.60;;
15536;SDS011;7870;52.448;13.270;2023-07-20T11:49:27;0.95;;;0.30;;
15536;SDS011;7870;52.448;13.270;2023-07-20T11:51:55;0.60;;;0.40;;
15536;SDS011;7870;52.448;13.270;2023-07-20T11:54:21;0.40;;;0.30;;
15536;SDS011;7870;52.448;13.270;2023-07-20T11:56:48;2.92;;;0.40;;
15536;SDS011;7870;52.448;13.270;2023-07-20T11:59:14;0.80;;;0.30;;
15536;SDS011;7870;52.448;13.270;2023-07-20T12:01:41;0.85;;;0.40;;
15536;SDS011;7870;52.448;13.270;2023-07-20T12:04:07;0.68;;;0.40;;
15536;SDS011;7870;52.448;13.270;2023-07-20T12:06:34;0.80;;;0.40;;
15536;SDS011;7870;52.448;13.270;2023-07-20T12:09:00;0.52;;;0.32;;
15536;SDS011;7870;52.448;13.270;2023-07-20T12:11:30;1.73;;;0.40;;
15536;SDS011;7870;52.448;13.270;2023-07-20T12:13:57;0.57;;;0.50;;
15536;SDS011;7870;52.448;13.270;2023-07-20T12:16:41;3.88;;;0.80;;
15536;SDS011;7870;52.448;13.270;2023-07-20T12:19:11;1.00;;;0.40;;
15536;SDS011;7870;52.448;13.270;2023-07-20T12:24:05;0.50;;;0.28;;
15536;SDS011;7870;52.448;13.270;2023-07-20T12:26:32;1.38;;;0.35;;
15536;SDS011;7870;52.448;13.270;2023-07-20T12:28:59;1.27;;;0.40;;
15536;SDS011;7870;52.448;13.270;2023-07-20T12:31:26;0.35;;;0.20;;
15536;SDS011;7870;52.448;13.270;2023-07-20T12:33:53;1.33;;;0.47;;
15536;SDS011;7870;52.448;13.270;2023-07-20T12:36:21;0.82;;;0.40;;
15536;SDS011;7870;52.448;13.270;2023-07-20T12:38:48;0.85;;;0.20;;
15536;SDS011;7870;52.448;13.270;2023-07-20T12:41:15;0.95;;;0.50;;
15536;SDS011;7870;52.448;13.270;2023-07-20T12:43:41;0.63;;;0.30;;
15536;SDS011;7870;52.448;13.270;2023-07-20T12:46:08;1.27;;;0.50;;
15536;SDS011;7870;52.448;13.270;2023-07-20T12:48:35;0.90;;;0.40;;
15536;SDS011;7870;52.448;13.270;2023-07-20T12:51:03;0.95;;;0.30;;
15536;SDS011;7870;52.448;13.270;2023-07-20T12:53:31;0.63;;;0.40;;
15536;SDS011;7870;52.448;13.270;2023-07-20T12:55:57;0.85;;;0.40;;
15536;SDS011;7870;52.448;13.270;2023-07-20T12:58:24;0.47;;;0.30;;
15536;SDS011;7870;52.448;13.270;2023-07-20T13:00:50;1.00;;;0.40;;
15536;SDS011;7870;52.448;13.270;2023-07-20T13:03:17;0.50;;;0.30;;
15536;SDS011;7870;52.448;13.270;2023-07-20T13:05:48;1.00;;;0.45;;
15536;SDS011;7870;52.448;13.270;2023-07-20T13:08:17;1.40;;;0.40;;
15536;SDS011;7870;52.448;13.270;2023-07-20T13:10:46;4.78;;;0.30;;
15536;SDS011;7870;52.448;13.270;2023-07-20T13:13:12;0.60;;;0.30;;
15536;SDS011;7870;52.448;13.270;2023-07-20T13:15:43;1.60;;;0.30;;
15536;SDS011;7870;52.448;13.270;2023-07-20T13:18:10;1.30;;;0.40;;
15536;SDS011;7870;52.448;13.270;2023-07-20T13:20:36;2.55;;;0.93;;
15536;SDS011;7870;52.448;13.270;2023-07-20T13:23:02;1.05;;;0.40;;
15536;SDS011;7870;52.448;13.270;2023-07-20T13:25:29;1.20;;;0.32;;
15536;SDS011;7870;52.448;13.270;2023-07-20T13:27:55;0.95;;;0.40;;
15536;SDS011;7870;52.448;13.270;2023-07-20T13:30:22;0.93;;;0.25;;
15536;SDS011;7870;52.448;13.270;2023-07-20T13:32:48;0.70;;;0.30;;
15536;SDS011;7870;52.448;13.270;2023-07-20T13:35:16;1.10;;;0.28;;
15536;SDS011;7870;52.448;13.270;2023-07-20T13:37:43;1.58;;;0.45;;
15536;SDS011;7870;52.448;13.270;2023-07-20T13:40:09;0.85;;;0.40;;
15536;SDS011;7870;52.448;13.270;2023-07-20T13:42:39;2.15;;;0.50;;
15536;SDS011;7870;52.448;13.270;2023-07-20T13:45:07;0.90;;;0.47;;
15536;SDS011;7870;52.448;13.270;2023-07-20T13:47:33;1.13;;;0.43;;
15536;SDS011;7870;52.448;13.270;2023-07-20T13:50:02;0.95;;;0.32;;
15536;SDS011;7870;52.448;13.270;2023-07-20T13:52:30;1.05;;;0.40;;
15536;SDS011;7870;52.448;13.270;2023-07-20T13:54:59;0.82;;;0.40;;
15536;SDS011;7870;52.448;13.270;2023-07-20T13:57:26;1.83;;;0.77;;
15536;SDS011;7870;52.448;13.270;2023-07-20T13:59:53;1.17;;;0.30;;
15536;SDS011;7870;52.448;13.270;2023-07-20T14:02:19;0.77;;;0.30;;
15536;SDS011;7870;52.448;13.270;2023-07-20T14:04:49;0.80;;;0.35;;
15536;SDS011;7870;52.448;13.270;2023-07-20T14:07:35;0.30;;;0.30;;
15536;SDS011;7870;52.448;13.270;2023-07-20T14:10:02;0.45;;;0.30;;
15536;SDS011;7870;52.448;13.270;2023-07-20T14:12:32;0.82;;;0.40;;
15536;SDS011;7870;52.448;13.270;2023-07-20T14:14:58;0.88;;;0.47;;
15536;SDS011;7870;52.448;13.270;2023-07-20T14:17:24;0.90;;;0.40;;
15536;SDS011;7870;52.448;13.270;2023-07-20T14:19:52;0.50;;;0.28;;
15536;SDS011;7870;52.448;13.270;2023-07-20T14:22:19;0.70;;;0.40;;
15536;SDS011;7870;52.448;13.270;2023-07-20T14:24:45;0.88;;;0.40;;
15536;SDS011;7870;52.448;13.270;2023-07-20T14:27:11;1.55;;;0.32;;
15536;SDS011;7870;52.448;13.270;2023-07-20T14:29:38;1.10;;;0.38;;
15536;SDS011;7870;52.448;13.270;2023-07-20T14:32:04;0.90;;;0.32;;
15536;SDS011;7870;52.448;13.270;2023-07-20T14:34:33;0.90;;;0.40;;
15536;SDS011;7870;52.448;13.270;2023-07-20T14:37:03;1.75;;;0.30;;
15536;SDS011;7870;52.448;13.270;2023-07-20T14:39:30;0.98;;;0.40;;
15536;SDS011;7870;52.448;13.270;2023-07-20T14:41:56;3.20;;;0.30;;
15536;SDS011;7870;52.448;13.270;2023-07-20T14:44:23;1.27;;;0.40;;
15536;SDS011;7870;52.448;13.270;2023-07-20T14:46:49;1.30;;;0.47;;
15536;SDS011;7870;52.448;13.270;2023-07-20T14:49:36;0.85;;;0.45;;
15536;SDS011;7870;52.448;13.270;2023-07-20T14:52:02;1.05;;;0.40;;
15536;SDS011;7870;52.448;13.270;2023-07-20T14:54:40;1.88;;;0.40;;
15536;SDS011;7870;52.448;13.270;2023-07-20T14:57:06;0.80;;;0.40;;